West Clarksfield, Ohio
Current Conditions -  °F | °C
As of 4:53 AM on Sunday 25 Jan 2015 (Local Time) from KLPR Reporting Station
Haze Haze  
Wind Chill: 30°   Ceiling: 1400
Heat Index: 34°   Visibility: 6mi
Dew Point: 32°   Wind: 5mph
Humidity: 92%   Direction: 270°W
Pressure: 29.73"   Gusts: NA
Location:  41.2376°N, 82.3866°W
Report Text: KLPR 250953Z AUTO 27004KT 6SM BR OVC014 01/00 A2973 RMK AO2 UPB0855E20B37E47RAB06E08SNB0857E06B20E37 SLP075 P0001 T00110000 TSNO
Loading
Personal Weather Stations






























Interactive Weather Map New forecast layout! Learn more

10-Day Weather Forecast

Advertisements
Track Severe Weather on mobile